Time;durP1;ratioP1;P1;durP2;ratioP2;P2;SDS_P1;SDS_P2;PMS_P1;PMS_P2;Temp;Humidity;BMP_temperature;BMP_pressure;BME280_temperature;BME280_humidity;BME280_pressure;Samples;Min_cycle;Max_cycle;Signal;HPM_P1;HPM_P2
2023/04/12 00:00:12;;;;;;;5.67;3.53;;;14.50;84.00;;;;;;5012686;28;20266;-79
2023/04/12 00:02:40;;;;;;;6.20;3.90;;;14.50;83.60;;;;;;5012763;28;20189;-79
2023/04/12 00:05:11;;;;;;;7.00;4.07;;;14.50;83.40;;;;;;5012505;28;20196;-79
2023/04/12 00:07:41;;;;;;;6.33;3.70;;;14.60;83.30;;;;;;5017944;28;20238;-77
2023/04/12 00:10:10;;;;;;;9.23;4.47;;;14.60;83.30;;;;;;5012377;28;20203;-78
2023/04/12 00:12:40;;;;;;;6.33;4.10;;;14.60;83.50;;;;;;5009541;28;20251;-79
2023/04/12 00:15:10;;;;;;;7.23;4.20;;;14.60;83.40;;;;;;5010001;28;20195;-79
2023/04/12 00:17:38;;;;;;;7.00;4.03;;;14.60;83.60;;;;;;5011388;28;20782;-78
2023/04/12 00:20:11;;;;;;;9.13;4.30;;;14.50;83.70;;;;;;5007022;28;20196;-79
2023/04/12 00:22:40;;;;;;;8.23;4.10;;;14.50;84.00;;;;;;5010917;28;20246;-79
2023/04/12 00:25:09;;;;;;;6.37;4.13;;;14.50;84.00;;;;;;5019332;28;20219;-79
2023/04/12 00:27:39;;;;;;;6.70;3.70;;;14.50;84.30;;;;;;5019545;28;20645;-79
2023/04/12 00:30:08;;;;;;;10.33;4.07;;;14.40;84.20;;;;;;5010087;28;20287;-79
2023/04/12 00:32:37;;;;;;;6.17;4.13;;;14.40;84.00;;;;;;5004723;28;20228;-79
2023/04/12 00:35:06;;;;;;;7.27;4.10;;;14.40;84.20;;;;;;5006552;28;20198;-78
2023/04/12 00:37:37;;;;;;;7.77;4.20;;;14.40;84.50;;;;;;5010666;28;20228;-79
2023/04/12 00:40:08;;;;;;;6.60;3.93;;;14.40;84.20;;;;;;5009675;28;20263;-79
2023/04/12 00:42:38;;;;;;;10.53;4.83;;;14.40;84.10;;;;;;5013384;28;20268;-78
2023/04/12 00:45:08;;;;;;;9.23;4.17;;;14.40;84.00;;;;;;5013456;28;20192;-79
2023/04/12 00:47:37;;;;;;;8.13;4.47;;;14.40;83.90;;;;;;5017859;28;20196;-79
2023/04/12 00:50:07;;;;;;;7.83;4.07;;;14.40;84.00;;;;;;5012195;28;20203;-79
2023/04/12 00:52:36;;;;;;;7.10;3.87;;;14.40;84.20;;;;;;5010495;28;20223;-79
2023/04/12 00:55:06;;;;;;;8.67;4.30;;;14.40;84.20;;;;;;5011624;28;20653;-78
2023/04/12 00:57:37;;;;;;;7.20;4.23;;;14.40;84.20;;;;;;5014793;28;20309;-79
2023/04/12 01:00:10;;;;;;;8.07;4.30;;;14.40;84.20;;;;;;5008286;28;20216;-78
2023/04/12 01:02:41;;;;;;;8.23;4.83;;;14.40;84.20;;;;;;5006446;28;20188;-78
2023/04/12 01:05:13;;;;;;;8.93;5.00;;;14.40;84.20;;;;;;5014932;28;20204;-79
2023/04/12 01:07:53;;;;;;;7.60;4.30;;;14.40;84.20;;;;;;5011720;28;20188;-78
2023/04/12 01:10:30;;;;;;;8.13;5.20;;;14.40;84.30;;;;;;5012528;28;20569;-78
2023/04/12 01:13:06;;;;;;;8.13;4.50;;;14.40;84.50;;;;;;5008345;28;20197;-78
2023/04/12 01:15:40;;;;;;;7.67;4.67;;;14.40;84.90;;;;;;5015901;28;20188;-79
2023/04/12 01:18:10;;;;;;;9.93;5.53;;;14.30;84.80;;;;;;5015939;28;20247;-78
2023/04/12 01:20:43;;;;;;;9.27;5.13;;;14.40;84.80;;;;;;5013488;28;20204;-77
2023/04/12 01:23:43;;;;;;;9.30;4.70;;;14.30;84.80;;;;;;5011057;28;20190;-79
2023/04/12 01:26:35;;;;;;;9.43;5.10;;;14.30;84.90;;;;;;5008992;28;20768;-78
2023/04/12 01:29:10;;;;;;;7.63;5.20;;;14.30;85.00;;;;;;5007960;28;20240;-78
2023/04/12 01:31:41;;;;;;;7.80;5.23;;;14.30;85.10;;;;;;5015364;28;20192;-77
2023/04/12 01:34:12;;;;;;;7.67;4.80;;;14.30;85.20;;;;;;5008322;28;20291;-78
2023/04/12 01:36:43;;;;;;;7.73;4.60;;;14.30;85.20;;;;;;5011057;28;20192;-78
2023/04/12 01:39:12;;;;;;;9.40;5.20;;;14.30;85.30;;;;;;5011854;28;20244;-78
2023/04/12 01:41:44;;;;;;;8.33;4.67;;;14.30;85.20;;;;;;5016606;28;20411;-79
2023/04/12 01:44:15;;;;;;;7.73;4.27;;;14.30;85.40;;;;;;5015707;28;20204;-78
2023/04/12 01:46:45;;;;;;;7.97;4.87;;;14.30;85.60;;;;;;5012833;28;20201;-78
2023/04/12 01:49:15;;;;;;;9.70;4.53;;;14.20;85.70;;;;;;5013016;28;20211;-78
2023/04/12 01:51:51;;;;;;;6.47;4.20;;;14.20;85.80;;;;;;5008887;28;20243;-78
2023/04/12 01:54:23;;;;;;;7.93;4.70;;;14.20;85.70;;;;;;5007681;28;20558;-78
2023/04/12 01:56:57;;;;;;;8.57;4.17;;;14.20;85.50;;;;;;5011108;28;20219;-78
2023/04/12 01:59:34;;;;;;;6.27;4.17;;;14.20;85.70;;;;;;5017394;28;20680;-78
2023/04/12 02:02:03;;;;;;;6.50;4.10;;;14.20;85.70;;;;;;5015590;28;20188;-79
2023/04/12 02:04:32;;;;;;;6.80;3.97;;;14.20;85.60;;;;;;5012945;28;20188;-78
2023/04/12 02:07:01;;;;;;;6.50;3.70;;;14.20;85.70;;;;;;5016441;28;20204;-79
2023/04/12 02:09:29;;;;;;;7.73;3.83;;;14.20;85.50;;;;;;5020725;28;20192;-79
2023/04/12 02:11:58;;;;;;;6.00;3.57;;;14.20;85.20;;;;;;5008934;28;20219;-78
2023/04/12 02:14:26;;;;;;;6.97;4.10;;;14.20;85.10;;;;;;5010528;28;20243;-79
2023/04/12 02:16:57;;;;;;;6.03;3.33;;;14.20;84.70;;;;;;5008297;28;20192;-78
2023/04/12 02:19:25;;;;;;;4.83;3.07;;;14.20;84.30;;;;;;5014169;28;20258;-78
2023/04/12 02:21:54;;;;;;;4.67;2.80;;;14.20;84.20;;;;;;5012059;28;20255;-77
2023/04/12 02:24:22;;;;;;;5.60;3.00;;;14.30;84.40;;;;;;5006864;28;20193;-78
2023/04/12 02:26:51;;;;;;;6.27;3.33;;;14.30;84.10;;;;;;5010409;28;20731;-78
2023/04/12 02:29:19;;;;;;;7.17;2.93;;;14.30;83.90;;;;;;5004251;28;20257;-78
2023/04/12 02:31:47;;;;;;;6.07;3.23;;;14.30;83.70;;;;;;5011671;28;20225;-79
2023/04/12 02:34:18;;;;;;;5.03;2.67;;;14.30;83.60;;;;;;5006170;28;20204;-79
2023/04/12 02:36:47;;;;;;;6.50;3.33;;;14.30;83.60;;;;;;5011130;28;20646;-79
2023/04/12 02:39:17;;;;;;;4.63;2.87;;;14.30;83.50;;;;;;5006095;28;20216;-79
2023/04/12 02:41:46;;;;;;;6.40;3.37;;;14.30;83.60;;;;;;5006096;28;20649;-78
2023/04/12 02:44:14;;;;;;;5.63;3.20;;;14.30;83.60;;;;;;4999210;28;20255;-80
2023/04/12 02:46:42;;;;;;;5.40;2.90;;;14.30;83.70;;;;;;5009392;28;20645;-80
2023/04/12 02:49:11;;;;;;;5.90;2.80;;;14.30;83.80;;;;;;5011736;28;20842;-79
2023/04/12 02:51:41;;;;;;;5.07;3.07;;;14.30;83.90;;;;;;5012613;28;20194;-79
2023/04/12 02:54:09;;;;;;;5.37;2.97;;;14.30;83.90;;;;;;5010895;28;20700;-79
2023/04/12 02:56:37;;;;;;;6.47;3.73;;;14.30;84.00;;;;;;5007454;28;20253;-79
2023/04/12 02:59:06;;;;;;;7.37;3.53;;;14.30;84.10;;;;;;5003521;28;20220;-79
2023/04/12 03:01:34;;;;;;;7.40;4.20;;;14.30;84.10;;;;;;5003181;28;20239;-79
2023/04/12 03:04:03;;;;;;;8.27;4.53;;;14.30;84.10;;;;;;5000613;28;20184;-81
2023/04/12 03:06:31;;;;;;;7.37;4.17;;;14.30;84.40;;;;;;5004173;28;20232;-79
2023/04/12 03:09:01;;;;;;;6.50;3.43;;;14.30;84.40;;;;;;5012822;28;20660;-79
2023/04/12 03:11:30;;;;;;;6.20;3.13;;;14.20;85.20;;;;;;5007657;28;20184;-79
2023/04/12 03:13:58;;;;;;;4.77;2.87;;;14.20;84.40;;;;;;5006387;28;20250;-79
2023/04/12 03:16:28;;;;;;;4.17;2.73;;;14.20;84.40;;;;;;5002729;28;20197;-79
2023/04/12 03:18:58;;;;;;;6.50;2.97;;;14.20;84.50;;;;;;5001354;28;20305;-80
2023/04/12 03:21:27;;;;;;;4.60;2.80;;;14.20;85.40;;;;;;5002421;28;20649;-79
2023/04/12 03:23:55;;;;;;;5.33;2.73;;;14.20;84.50;;;;;;4999072;28;20196;-78
2023/04/12 03:26:26;;;;;;;4.47;2.80;;;14.20;84.40;;;;;;5001919;28;21532;-80
2023/04/12 03:28:59;;;;;;;5.60;2.70;;;14.20;84.50;;;;;;5008468;28;20653;-79
2023/04/12 03:31:27;;;;;;;8.07;3.30;;;14.20;84.50;;;;;;5004738;28;20192;-79
2023/04/12 03:33:56;;;;;;;5.33;3.17;;;14.20;84.70;;;;;;5016328;28;20197;-79
2023/04/12 03:36:26;;;;;;;4.03;2.27;;;14.10;84.70;;;;;;5007589;28;20189;-79
2023/04/12 03:38:54;;;;;;;4.30;2.60;;;14.10;84.80;;;;;;5009723;28;20646;-79
2023/04/12 03:41:23;;;;;;;5.10;2.77;;;14.10;84.80;;;;;;5009355;28;20200;-79
2023/04/12 03:43:53;;;;;;;4.00;2.43;;;14.10;84.80;;;;;;5005596;28;20263;-79
2023/04/12 03:46:21;;;;;;;4.87;2.70;;;14.10;84.80;;;;;;5010424;28;20196;-79
2023/04/12 03:48:50;;;;;;;7.80;2.50;;;14.10;84.80;;;;;;5009887;28;20224;-79
2023/04/12 03:51:21;;;;;;;5.37;3.20;;;14.10;84.80;;;;;;5010080;28;20203;-79
2023/04/12 03:53:49;;;;;;;5.80;2.80;;;14.10;84.90;;;;;;5027790;28;20218;-79
2023/04/12 03:56:18;;;;;;;6.87;3.87;;;14.10;85.10;;;;;;5010028;28;20239;-79
2023/04/12 03:58:47;;;;;;;8.17;3.63;;;14.10;85.20;;;;;;5009112;28;20266;-79
2023/04/12 04:01:17;;;;;;;10.23;4.67;;;14.10;85.20;;;;;;5011877;28;20220;-79
2023/04/12 04:03:46;;;;;;;11.33;5.67;;;14.20;85.40;;;;;;5011273;28;20587;-79
2023/04/12 04:06:16;;;;;;;14.60;6.80;;;14.10;85.40;;;;;;5008764;28;20201;-79
2023/04/12 04:08:44;;;;;;;10.67;5.53;;;14.10;85.60;;;;;;5010252;28;20210;-79
2023/04/12 04:11:13;;;;;;;11.03;5.57;;;14.10;85.50;;;;;;5004352;28;20265;-79
2023/04/12 04:13:41;;;;;;;10.87;5.07;;;14.20;85.60;;;;;;5006104;28;20196;-78
2023/04/12 04:16:10;;;;;;;12.00;5.30;;;14.10;85.50;;;;;;5008571;28;20198;-79
2023/04/12 04:18:40;;;;;;;11.50;5.17;;;14.20;85.60;;;;;;5008154;28;20224;-79
2023/04/12 04:21:08;;;;;;;10.80;4.40;;;14.10;85.60;;;;;;5009227;28;20643;-78
2023/04/12 04:23:38;;;;;;;7.13;4.43;;;14.20;85.60;;;;;;4999039;28;20242;-79
2023/04/12 04:26:08;;;;;;;10.20;4.53;;;14.20;85.60;;;;;;5007539;28;20725;-79
2023/04/12 04:28:37;;;;;;;12.80;5.53;;;14.20;85.60;;;;;;5005584;28;20184;-79
2023/04/12 04:31:06;;;;;;;12.97;6.53;;;14.20;85.80;;;;;;5008398;28;20224;-79
2023/04/12 04:33:34;;;;;;;12.70;5.73;;;14.20;85.80;;;;;;5004099;28;20283;-78
2023/04/12 04:36:06;;;;;;;12.83;6.27;;;14.20;85.80;;;;;;5004811;28;20246;-78
2023/04/12 04:38:34;;;;;;;11.87;6.13;;;14.30;86.00;;;;;;5009736;28;20220;-79
2023/04/12 04:41:03;;;;;;;14.97;5.60;;;14.20;85.90;;;;;;5008644;28;20224;-79
2023/04/12 04:43:32;;;;;;;11.20;4.90;;;14.30;86.20;;;;;;5004113;28;21465;-79
2023/04/12 04:46:01;;;;;;;9.30;5.10;;;14.30;86.30;;;;;;5003382;28;20211;-80
2023/04/12 04:48:30;;;;;;;7.50;4.80;;;14.30;86.10;;;;;;5009033;28;20247;-79
2023/04/12 04:51:00;;;;;;;6.90;4.67;;;14.30;86.20;;;;;;5011986;28;20327;-79
2023/04/12 04:53:30;;;;;;;9.90;4.20;;;14.30;86.30;;;;;;5012431;28;20660;-81
2023/04/12 04:56:00;;;;;;;9.40;4.73;;;14.30;86.30;;;;;;5016333;28;20188;-79
2023/04/12 04:58:28;;;;;;;9.17;4.10;;;14.30;86.30;;;;;;5015820;28;20283;-80
2023/04/12 05:00:58;;;;;;;6.00;3.70;;;14.30;86.20;;;;;;5018240;28;20301;-79
2023/04/12 05:03:27;;;;;;;8.60;4.10;;;14.40;86.20;;;;;;5016425;28;20633;-79
2023/04/12 05:05:58;;;;;;;6.67;3.80;;;14.40;85.90;;;;;;5020246;28;20196;-79
2023/04/12 05:08:27;;;;;;;10.43;4.30;;;14.40;85.80;;;;;;5007919;28;20193;-79
2023/04/12 05:10:58;;;;;;;8.40;4.10;;;14.40;85.80;;;;;;5015817;28;20299;-79
2023/04/12 05:13:26;;;;;;;9.83;4.30;;;14.40;85.50;;;;;;5012228;28;20242;-80
2023/04/12 05:15:54;;;;;;;6.80;3.70;;;14.50;85.50;;;;;;5014013;28;20223;-80
2023/04/12 05:18:23;;;;;;;10.67;4.50;;;14.50;85.40;;;;;;5009109;28;20196;-79
2023/04/12 05:20:51;;;;;;;9.27;4.57;;;14.50;85.20;;;;;;4999921;28;20229;-79
2023/04/12 05:23:19;;;;;;;8.20;4.50;;;14.50;84.90;;;;;;5014687;28;20216;-79
2023/04/12 05:25:48;;;;;;;8.17;3.83;;;14.50;84.70;;;;;;5013921;28;20259;-79
2023/04/12 05:28:18;;;;;;;7.80;4.40;;;14.50;84.50;;;;;;5016402;28;20282;-80
2023/04/12 05:30:47;;;;;;;10.80;4.50;;;14.60;84.60;;;;;;5012860;28;20193;-80
2023/04/12 05:33:15;;;;;;;6.83;4.10;;;14.60;84.40;;;;;;5010902;28;20234;-80
2023/04/12 05:35:43;;;;;;;10.00;4.43;;;14.70;84.40;;;;;;5014333;28;20204;-80
2023/04/12 05:38:12;;;;;;;8.00;4.20;;;14.70;84.50;;;;;;5020322;28;20259;-80
2023/04/12 05:40:42;;;;;;;8.63;4.73;;;14.80;84.60;;;;;;5007304;28;20311;-79
2023/04/12 05:43:11;;;;;;;10.37;4.73;;;14.80;84.60;;;;;;5012614;28;20201;-80
2023/04/12 05:45:41;;;;;;;9.03;4.23;;;14.80;84.40;;;;;;5025437;28;20192;-80
2023/04/12 05:48:10;;;;;;;8.83;5.17;;;14.90;84.50;;;;;;5010037;28;20582;-79
2023/04/12 05:50:38;;;;;;;9.40;5.20;;;14.90;84.60;;;;;;5011783;28;20235;-80
2023/04/12 05:53:07;;;;;;;11.00;6.03;;;15.00;84.60;;;;;;5007660;28;20251;-79
2023/04/12 05:55:37;;;;;;;8.83;5.47;;;15.00;84.60;;;;;;5006520;28;20200;-79
2023/04/12 05:58:05;;;;;;;9.67;6.07;;;15.00;84.70;;;;;;5004896;28;20242;-79
2023/04/12 06:00:33;;;;;;;9.90;5.40;;;15.10;84.70;;;;;;5017416;28;20223;-78
2023/04/12 06:03:03;;;;;;;9.53;5.33;;;15.10;84.40;;;;;;5020125;28;20719;-80
2023/04/12 06:05:34;;;;;;;9.57;5.13;;;15.20;84.10;;;;;;5027921;28;20255;-81
2023/04/12 06:08:04;;;;;;;10.07;5.03;;;15.20;84.00;;;;;;5013116;28;20291;-80
2023/04/12 06:10:32;;;;;;;9.07;4.57;;;15.30;83.70;;;;;;5010565;28;20197;-80
2023/04/12 06:13:00;;;;;;;9.07;4.87;;;15.30;82.80;;;;;;5010430;28;20669;-79
2023/04/12 06:15:30;;;;;;;14.20;4.63;;;15.40;82.90;;;;;;5024588;28;20221;-80
2023/04/12 06:17:59;;;;;;;8.93;5.43;;;15.40;82.90;;;;;;5005004;28;20291;-79
2023/04/12 06:20:29;;;;;;;8.13;4.77;;;15.50;82.90;;;;;;5017151;28;20189;-79
2023/04/12 06:22:57;;;;;;;7.50;4.97;;;15.40;82.70;;;;;;5014045;28;20250;-79
2023/04/12 06:25:26;;;;;;;8.90;4.93;;;15.50;82.70;;;;;;5017691;28;20252;-79
2023/04/12 06:27:54;;;;;;;7.63;4.23;;;15.50;82.70;;;;;;5011214;28;20661;-79
2023/04/12 06:30:22;;;;;;;9.07;4.80;;;15.50;82.60;;;;;;5014082;28;20653;-80
2023/04/12 06:32:51;;;;;;;7.70;4.47;;;15.50;82.60;;;;;;5022930;28;20220;-80
2023/04/12 06:35:20;;;;;;;8.03;4.13;;;15.50;82.70;;;;;;5014076;28;20196;-80
2023/04/12 06:37:50;;;;;;;8.77;4.60;;;15.50;82.30;;;;;;5014481;28;20665;-80
2023/04/12 06:40:18;;;;;;;9.77;5.00;;;15.50;82.30;;;;;;5011574;28;20196;-80
2023/04/12 06:42:46;;;;;;;11.17;5.13;;;15.50;82.30;;;;;;5006113;28;20201;-80
2023/04/12 06:45:15;;;;;;;10.13;5.50;;;15.60;82.20;;;;;;5002666;28;20232;-80
2023/04/12 06:47:43;;;;;;;8.27;4.67;;;15.60;82.10;;;;;;5007066;28;20192;-79
2023/04/12 06:50:12;;;;;;;13.20;5.30;;;15.60;81.90;;;;;;5004092;28;20654;-80
2023/04/12 06:52:40;;;;;;;12.63;6.67;;;15.50;81.60;;;;;;5010354;28;20195;-81
2023/04/12 06:55:10;;;;;;;12.90;6.53;;;15.50;81.90;;;;;;5004837;28;20207;-80
2023/04/12 06:57:39;;;;;;;12.90;6.83;;;15.50;82.20;;;;;;5017732;28;20192;-79
2023/04/12 07:00:08;;;;;;;13.97;6.70;;;15.50;82.50;;;;;;5017551;28;20192;-79
2023/04/12 07:02:37;;;;;;;14.00;7.23;;;15.40;82.60;;;;;;5017044;28;20218;-80
2023/04/12 07:05:07;;;;;;;11.57;6.50;;;15.40;83.00;;;;;;5006054;28;20235;-82
2023/04/12 07:07:35;;;;;;;14.07;7.47;;;15.40;83.30;;;;;;5004689;28;20204;-81
2023/04/12 07:10:04;;;;;;;17.30;8.20;;;15.40;83.50;;;;;;5001417;28;20196;-81
2023/04/12 07:12:34;;;;;;;17.77;8.20;;;15.30;83.90;;;;;;4999203;28;21114;-81
2023/04/12 07:15:02;;;;;;;15.47;8.60;;;15.30;83.90;;;;;;4998538;28;20229;-80
2023/04/12 07:17:36;;;;;;;18.07;8.60;;;15.30;84.00;;;;;;5001951;28;20254;-79
2023/04/12 07:20:05;;;;;;;13.47;7.60;;;15.30;84.50;;;;;;5006227;28;21893;-81
2023/04/12 07:22:34;;;;;;;13.47;7.10;;;15.30;84.70;;;;;;5007554;28;20231;-79
2023/04/12 07:25:04;;;;;;;14.13;7.40;;;15.20;85.20;;;;;;5006650;28;20200;-79
2023/04/12 07:27:33;;;;;;;14.80;7.63;;;15.20;85.50;;;;;;5005703;28;20192;-80
2023/04/12 07:30:02;;;;;;;9.87;6.20;;;15.10;85.60;;;;;;5006531;28;20258;-78
2023/04/12 07:32:30;;;;;;;14.83;7.53;;;15.10;85.80;;;;;;5005985;28;20224;-80
2023/04/12 07:34:59;;;;;;;11.87;6.03;;;15.10;85.60;;;;;;5006706;28;20196;-79
2023/04/12 07:37:27;;;;;;;12.77;7.80;;;15.10;85.50;;;;;;5001921;28;20189;-80
2023/04/12 07:39:55;;;;;;;14.30;7.17;;;15.00;85.80;;;;;;4999899;28;20192;-81
2023/04/12 07:42:24;;;;;;;12.40;6.80;;;15.00;85.50;;;;;;5005468;28;20677;-80
2023/04/12 07:44:54;;;;;;;12.27;6.90;;;15.00;85.50;;;;;;5006441;28;20202;-80
2023/04/12 07:47:22;;;;;;;11.77;7.03;;;15.10;85.80;;;;;;5006696;28;20255;-79
2023/04/12 07:49:50;;;;;;;14.47;6.17;;;15.10;86.20;;;;;;5008638;28;20283;-79
2023/04/12 07:52:19;;;;;;;11.70;5.60;;;15.00;86.20;;;;;;5006786;28;20212;-80
2023/04/12 07:54:47;;;;;;;11.07;6.13;;;15.10;86.20;;;;;;5006540;28;20228;-78
2023/04/12 07:57:15;;;;;;;13.87;5.93;;;15.10;86.10;;;;;;5006548;28;20197;-79
2023/04/12 07:59:44;;;;;;;8.60;5.50;;;15.10;86.20;;;;;;5001162;28;20661;-79
2023/04/12 08:02:14;;;;;;;8.77;4.87;;;15.10;86.00;;;;;;5009392;28;20220;-79
2023/04/12 08:04:44;;;;;;;11.43;5.30;;;15.10;86.20;;;;;;5011601;28;20196;-79
2023/04/12 08:07:12;;;;;;;8.77;4.83;;;15.20;85.40;;;;;;5007457;28;20567;-79
2023/04/12 08:09:41;;;;;;;10.53;5.23;;;15.20;85.50;;;;;;5009088;28;20247;-80
2023/04/12 08:12:10;;;;;;;12.63;6.27;;;15.30;85.70;;;;;;5005465;28;20205;-78
2023/04/12 08:14:38;;;;;;;14.83;7.17;;;15.40;85.40;;;;;;5000172;28;20737;-77
2023/04/12 08:17:08;;;;;;;24.97;8.93;;;15.50;85.20;;;;;;4995072;28;20192;-80
2023/04/12 08:19:38;;;;;;;11.93;6.37;;;15.60;85.30;;;;;;5003070;28;20188;-78
2023/04/12 08:22:07;;;;;;;8.63;4.77;;;15.60;85.00;;;;;;5004079;28;20560;-79
2023/04/12 08:24:35;;;;;;;7.33;3.93;;;15.60;84.90;;;;;;5008451;28;20606;-79
2023/04/12 08:27:03;;;;;;;8.30;4.20;;;15.70;84.70;;;;;;5004675;28;20208;-79
2023/04/12 08:29:33;;;;;;;7.63;3.60;;;15.80;84.30;;;;;;5010221;28;20246;-81
2023/04/12 08:32:02;;;;;;;7.93;3.87;;;15.80;83.60;;;;;;5008803;28;20212;-80
2023/04/12 08:34:31;;;;;;;7.43;3.73;;;15.90;84.10;;;;;;5002912;28;20266;-80
2023/04/12 08:37:01;;;;;;;6.10;3.90;;;16.00;82.60;;;;;;5010750;28;20303;-80
2023/04/12 08:39:31;;;;;;;4.40;2.70;;;16.00;82.60;;;;;;5001305;28;20192;-79
2023/04/12 08:42:01;;;;;;;6.77;3.13;;;15.90;81.90;;;;;;5002984;28;20255;-80
2023/04/12 08:44:36;;;;;;;5.03;2.93;;;16.00;81.60;;;;;;5003378;28;20243;-79
2023/04/12 08:47:06;;;;;;;6.67;3.27;;;16.10;81.90;;;;;;5012815;28;20282;-79
2023/04/12 08:49:35;;;;;;;4.57;2.43;;;16.10;81.80;;;;;;5009608;28;20250;-78
2023/04/12 08:52:06;;;;;;;2.53;1.40;;;16.20;80.80;;;;;;5012952;28;20280;-80
2023/04/12 08:54:35;;;;;;;3.43;1.47;;;16.20;80.40;;;;;;5003891;28;20204;-81
2023/04/12 08:57:05;;;;;;;3.97;1.97;;;16.20;80.00;;;;;;5007440;28;20593;-80
2023/04/12 08:59:38;;;;;;;3.03;1.47;;;16.30;79.70;;;;;;4999520;28;20223;-77
2023/04/12 09:02:06;;;;;;;2.10;1.10;;;16.30;78.30;;;;;;5006018;28;21734;-79
2023/04/12 09:04:34;;;;;;;4.03;1.60;;;16.30;77.80;;;;;;5002517;28;20190;-79
2023/04/12 09:07:04;;;;;;;4.67;1.63;;;16.30;77.10;;;;;;5012239;28;20274;-81
2023/04/12 09:09:43;;;;;;;2.77;1.73;;;16.40;76.80;;;;;;5006742;28;20247;-81
2023/04/12 09:12:12;;;;;;;4.17;2.10;;;16.40;77.00;;;;;;5012371;28;20199;-82
2023/04/12 09:14:43;;;;;;;3.53;2.03;;;16.40;76.90;;;;;;5009524;28;20279;-81
2023/04/12 09:17:50;;;;;;;2.57;1.23;;;16.50;77.10;;;;;;5000193;28;20254;-82
2023/04/12 09:20:25;;;;;;;2.63;1.60;;;16.40;76.60;;;;;;4984863;28;20202;-80
2023/04/12 09:22:55;;;;;;;3.37;1.53;;;16.50;76.90;;;;;;5010552;28;20215;-80
2023/04/12 09:25:38;;;;;;;2.33;1.40;;;16.60;76.90;;;;;;5008844;28;20200;-79
2023/04/12 09:28:23;;;;;;;3.03;1.70;;;16.70;77.00;;;;;;4999334;28;20192;-79
2023/04/12 09:30:52;;;;;;;3.60;1.60;;;16.70;77.40;;;;;;5010462;28;20654;-80
2023/04/12 09:33:22;;;;;;;3.60;1.60;;;16.70;77.50;;;;;;5001846;28;21544;-80
2023/04/12 09:35:50;;;;;;;2.97;1.57;;;16.80;77.60;;;;;;5011161;28;20506;-81
2023/04/12 09:38:20;;;;;;;4.80;1.40;;;16.80;76.70;;;;;;5008744;28;20200;-81
2023/04/12 09:40:53;;;;;;;2.63;1.40;;;16.90;76.30;;;;;;5008496;28;20251;-82
2023/04/12 09:43:37;;;;;;;3.07;1.70;;;16.80;74.90;;;;;;5009936;28;20224;-80
2023/04/12 09:46:12;;;;;;;4.00;1.80;;;16.90;75.00;;;;;;5011314;28;20201;-83
2023/04/12 09:48:41;;;;;;;3.53;2.00;;;16.90;74.40;;;;;;5008084;28;20207;-77
2023/04/12 09:51:09;;;;;;;3.77;2.20;;;16.90;74.40;;;;;;5006462;28;20587;-76
2023/04/12 09:53:44;;;;;;;3.80;2.60;;;17.00;73.60;;;;;;5004334;28;20237;-78
2023/04/12 09:56:14;;;;;;;5.07;3.00;;;17.00;74.30;;;;;;5010928;28;20831;-76
2023/04/12 09:58:44;;;;;;;7.97;3.50;;;17.10;75.30;;;;;;5001371;28;20204;-78
2023/04/12 10:01:15;;;;;;;8.33;3.50;;;17.10;76.10;;;;;;5007936;28;20196;-78
2023/04/12 10:03:45;;;;;;;6.70;3.40;;;17.00;75.90;;;;;;5008979;28;20224;-78
2023/04/12 10:06:35;;;;;;;5.70;3.33;;;17.10;76.00;;;;;;5008416;28;20188;-78
2023/04/12 10:09:07;;;;;;;6.23;3.13;;;17.20;76.40;;;;;;5002104;28;20241;-77
2023/04/12 10:11:39;;;;;;;5.80;3.13;;;17.20;76.50;;;;;;5007149;28;20193;-78
2023/04/12 10:14:10;;;;;;;5.20;3.00;;;17.30;76.40;;;;;;5003572;28;20184;-77
2023/04/12 10:16:40;;;;;;;5.47;3.13;;;17.30;76.60;;;;;;5005914;28;20533;-77
2023/04/12 10:19:10;;;;;;;5.73;2.93;;;17.30;76.90;;;;;;5011844;28;20223;-78
2023/04/12 10:21:38;;;;;;;5.57;2.83;;;17.30;76.80;;;;;;5012502;28;20212;-78
2023/04/12 10:24:09;;;;;;;4.87;2.97;;;17.40;77.00;;;;;;5006421;28;20227;-78
2023/04/12 10:26:42;;;;;;;5.13;2.90;;;17.40;76.80;;;;;;5007808;28;20188;-78
2023/04/12 10:29:24;;;;;;;6.13;3.20;;;17.40;76.10;;;;;;5007461;28;20200;-78
2023/04/12 10:31:53;;;;;;;5.60;3.20;;;17.50;76.00;;;;;;5007444;28;20234;-77
2023/04/12 10:34:28;;;;;;;7.33;3.50;;;17.50;76.00;;;;;;5029158;28;20227;-78
2023/04/12 10:37:00;;;;;;;4.73;2.47;;;17.50;75.60;;;;;;5029746;28;20202;-78
2023/04/12 10:39:41;;;;;;;6.77;3.63;;;17.60;75.50;;;;;;5027113;28;20197;-77
2023/04/12 10:42:18;;;;;;;6.17;3.30;;;17.60;75.40;;;;;;5022560;28;20877;-78
2023/04/12 10:44:47;;;;;;;7.50;3.40;;;17.60;75.50;;;;;;5017176;28;21029;-81
2023/04/12 10:47:16;;;;;;;6.40;3.27;;;17.70;75.30;;;;;;5023744;28;20196;-78
2023/04/12 10:50:14;;;;;;;6.33;3.37;;;17.70;74.90;;;;;;5033352;28;20278;-77
2023/04/12 10:52:43;;;;;;;6.60;3.30;;;17.70;75.40;;;;;;5028700;28;20277;-78
2023/04/12 10:55:32;;;;;;;8.93;3.87;;;17.70;74.80;;;;;;5031838;28;20231;-78
2023/04/12 10:58:00;;;;;;;4.73;2.70;;;17.70;74.20;;;;;;5033615;28;20258;-78
2023/04/12 11:01:15;;;;;;;6.00;3.50;;;17.80;74.30;;;;;;5030818;28;20233;-78
2023/04/12 11:04:16;;;;;;;5.70;3.20;;;17.80;74.40;;;;;;5029483;28;20242;-77
2023/04/12 11:06:55;;;;;;;6.50;3.50;;;17.90;74.50;;;;;;5029523;28;20199;-79
2023/04/12 11:09:28;;;;;;;6.67;3.70;;;17.90;74.60;;;;;;5035349;28;20196;-78
2023/04/12 11:12:11;;;;;;;7.30;3.40;;;18.00;74.70;;;;;;5027490;28;20199;-78
2023/04/12 11:14:44;;;;;;;7.97;3.60;;;18.00;74.60;;;;;;5028201;28;20293;-78
2023/04/12 11:17:23;;;;;;;9.27;3.87;;;18.10;74.20;;;;;;5033042;28;20195;-78
2023/04/12 11:19:55;;;;;;;5.73;3.30;;;18.20;74.10;;;;;;5028996;28;20282;-78
2023/04/12 11:22:26;;;;;;;7.50;4.10;;;18.20;73.40;;;;;;5036917;28;20218;-78
2023/04/12 11:24:56;;;;;;;6.27;3.80;;;18.20;73.50;;;;;;5027884;28;20207;-78
2023/04/12 11:27:27;;;;;;;6.07;3.30;;;18.30;73.30;;;;;;5033870;28;20246;-77
2023/04/12 11:29:57;;;;;;;6.60;3.50;;;18.30;73.50;;;;;;5025815;28;20199;-78
2023/04/12 11:32:28;;;;;;;8.40;3.50;;;18.30;73.40;;;;;;5017401;28;20713;-80
2023/04/12 11:34:57;;;;;;;6.87;3.73;;;18.30;73.30;;;;;;5019368;28;23244;-80
2023/04/12 11:37:26;;;;;;;5.67;3.77;;;18.30;73.40;;;;;;5035956;28;20191;-79
2023/04/12 11:39:57;;;;;;;7.80;3.47;;;18.30;73.40;;;;;;5028999;28;20245;-78
2023/04/12 11:42:29;;;;;;;9.47;3.50;;;18.30;73.70;;;;;;5037146;28;20194;-80
2023/04/12 11:44:58;;;;;;;8.10;3.43;;;18.30;73.60;;;;;;5025866;28;22408;-76
2023/04/12 11:47:34;;;;;;;7.63;3.80;;;18.20;72.70;;;;;;5037636;28;20187;-77
2023/04/12 11:50:03;;;;;;;5.57;3.00;;;18.30;72.70;;;;;;5030326;28;20274;-78
2023/04/12 11:52:33;;;;;;;5.63;3.40;;;18.30;72.40;;;;;;5030398;28;20207;-78
2023/04/12 11:55:05;;;;;;;8.87;3.10;;;18.30;72.50;;;;;;5029556;28;20641;-78
2023/04/12 11:57:35;;;;;;;7.23;3.50;;;18.40;72.20;;;;;;5025699;28;20230;-78
2023/04/12 12:00:05;;;;;;;5.00;2.67;;;18.40;71.50;;;;;;5036323;28;20195;-78
2023/04/12 12:02:35;;;;;;;6.87;3.20;;;18.40;71.60;;;;;;5045065;28;20187;-78
2023/04/12 12:05:20;;;;;;;4.87;2.87;;;18.40;71.30;;;;;;5030067;28;20252;-78
2023/04/12 12:07:51;;;;;;;7.23;3.33;;;18.40;70.20;;;;;;5033534;28;20211;-78
2023/04/12 12:10:20;;;;;;;12.50;4.27;;;18.40;70.60;;;;;;5037688;28;20794;-78
2023/04/12 12:13:13;;;;;;;9.23;3.40;;;18.40;71.30;;;;;;5036581;28;20240;-78
2023/04/12 12:15:45;;;;;;;9.17;3.90;;;18.50;71.70;;;;;;5029417;28;20191;-77
2023/04/12 12:18:13;;;;;;;7.20;3.70;;;18.50;71.70;;;;;;5030272;28;20192;-77
2023/04/12 12:20:47;;;;;;;6.77;3.60;;;18.50;71.70;;;;;;5034737;28;20649;-78
2023/04/12 12:23:31;;;;;;;10.53;3.70;;;18.50;71.80;;;;;;5039334;28;20653;-79
2023/04/12 12:25:59;;;;;;;5.93;3.73;;;18.60;72.10;;;;;;5043746;28;20202;-78
2023/04/12 12:28:50;;;;;;;8.00;3.87;;;18.60;72.20;;;;;;5030936;28;20253;-78
2023/04/12 12:31:21;;;;;;;7.13;3.53;;;18.70;72.40;;;;;;5040520;28;20240;-78
2023/04/12 12:33:53;;;;;;;6.33;3.20;;;18.70;72.40;;;;;;5038921;28;20191;-79
2023/04/12 12:36:30;;;;;;;7.33;3.80;;;18.70;72.40;;;;;;5022803;28;20195;-79
2023/04/12 12:39:05;;;;;;;6.97;3.90;;;18.80;72.50;;;;;;5029493;28;20625;-78
2023/04/12 12:41:34;;;;;;;6.05;3.63;;;18.80;72.20;;;;;;5038720;28;20566;-77
2023/04/12 12:44:04;;;;;;;6.43;3.73;;;18.80;72.50;;;;;;5035147;28;20588;-78
2023/04/12 12:46:33;;;;;;;6.28;3.50;;;18.80;72.50;;;;;;5041643;28;20199;-78
2023/04/12 12:49:04;;;;;;;6.10;3.90;;;18.90;72.30;;;;;;5030613;28;20227;-78
2023/04/12 12:51:32;;;;;;;6.93;3.97;;;19.00;72.40;;;;;;5030347;28;20191;-79
2023/04/12 12:54:00;;;;;;;7.53;4.30;;;19.00;72.10;;;;;;5035238;28;20195;-78
2023/04/12 12:56:29;;;;;;;8.10;3.77;;;19.00;72.30;;;;;;5031803;28;20527;-79
2023/04/12 12:59:00;;;;;;;8.35;3.63;;;19.10;72.00;;;;;;5038464;28;20262;-78
2023/04/12 13:01:30;;;;;;;5.50;3.50;;;19.20;71.90;;;;;;5039464;28;20204;-81
2023/04/12 13:03:58;;;;;;;6.30;3.65;;;19.30;72.20;;;;;;5035264;28;20950;-78